Time;durP1;ratioP1;P1;durP2;ratioP2;P2;SDS_P1;SDS_P2;PMS_P1;PMS_P2;Temp;Humidity;BMP_temperature;BMP_pressure;BME280_temperature;BME280_humidity;BME280_pressure;Samples;Min_cycle;Max_cycle;Signal;HPM_P1;HPM_P2
2021/06/30 00:02:38;;;;;;;34.42;20.38;;;;;;;15.94;100.00;100698.91;6305835;22;20048;-75
2021/06/30 00:05:39;;;;;;;22.10;18.17;;;;;;;15.99;100.00;100693.25;6301791;28;20048;-75
2021/06/30 00:08:40;;;;;;;24.98;18.55;;;;;;;16.01;100.00;100711.69;6319807;28;20051;-75
2021/06/30 00:11:42;;;;;;;29.13;17.10;;;;;;;15.97;100.00;100714.56;6315599;28;20052;-75
2021/06/30 00:14:45;;;;;;;31.75;17.92;;;;;;;15.95;100.00;100711.19;6296443;28;20048;-75
2021/06/30 00:17:47;;;;;;;31.08;19.13;;;;;;;15.93;100.00;100707.78;6293008;28;20178;-75
2021/06/30 00:20:49;;;;;;;34.05;21.02;;;;;;;15.86;100.00;100711.06;6287319;28;20052;-74
2021/06/30 00:23:50;;;;;;;36.00;21.42;;;;;;;15.81;100.00;100700.81;6296143;28;20455;-75
2021/06/30 00:26:51;;;;;;;42.20;23.38;;;;;;;15.83;100.00;100695.38;6296346;28;20096;-75
2021/06/30 00:29:54;;;;;;;46.13;24.42;;;;;;;15.83;100.00;100698.88;6296062;28;20040;-75
2021/06/30 00:32:56;;;;;;;51.40;27.70;;;;;;;15.78;100.00;100687.78;6295969;28;20052;-74
2021/06/30 00:35:58;;;;;;;57.83;27.75;;;;;;;15.74;100.00;100686.31;6296053;28;20487;-74
2021/06/30 00:39:00;;;;;;;52.28;29.17;;;;;;;15.81;100.00;100681.41;6296003;28;20432;-74
2021/06/30 00:42:01;;;;;;;57.28;28.98;;;;;;;15.83;100.00;100672.38;6295740;28;20051;-75
2021/06/30 00:45:06;;;;;;;62.15;29.77;;;;;;;15.82;100.00;100664.53;6296073;28;20049;-74
2021/06/30 00:48:07;;;;;;;57.30;30.60;;;;;;;15.81;100.00;100661.06;6296250;28;20052;-75
2021/06/30 00:51:09;;;;;;;47.53;27.42;;;;;;;15.91;100.00;100648.78;6295510;28;20079;-74
2021/06/30 00:54:10;;;;;;;62.95;30.50;;;;;;;15.97;100.00;100656.25;6295562;28;20411;-74
2021/06/30 00:57:14;;;;;;;61.05;30.65;;;;;;;15.93;100.00;100661.91;6295821;28;20492;-74
2021/06/30 01:00:17;;;;;;;66.57;32.60;;;;;;;16.00;100.00;100654.34;6295591;28;20060;-75
2021/06/30 01:03:19;;;;;;;62.92;31.15;;;;;;;15.98;100.00;100649.13;6295700;28;20393;-75
2021/06/30 01:06:21;;;;;;;55.35;31.45;;;;;;;15.98;100.00;100646.47;6295933;28;20138;-74
2021/06/30 01:09:22;;;;;;;65.50;31.50;;;;;;;15.90;100.00;100635.66;6295563;28;20052;-74
2021/06/30 01:12:23;;;;;;;52.70;27.98;;;;;;;15.88;100.00;100633.09;6296308;28;20045;-74
2021/06/30 01:15:26;;;;;;;59.67;30.58;;;;;;;15.84;100.00;100623.69;6299711;28;20052;-74
2021/06/30 01:18:30;;;;;;;56.78;32.15;;;;;;;15.85;100.00;100622.75;6299950;28;20048;-75
2021/06/30 01:21:31;;;;;;;65.57;32.85;;;;;;;15.81;100.00;100621.31;6299737;28;20121;-75
2021/06/30 01:24:34;;;;;;;72.60;33.40;;;;;;;15.89;100.00;100626.00;6300236;28;20048;-75
2021/06/30 01:27:36;;;;;;;68.32;35.05;;;;;;;15.94;100.00;100632.66;6299805;28;20051;-74
2021/06/30 01:30:38;;;;;;;83.88;35.53;;;;;;;15.98;100.00;100646.47;6299518;28;20491;-75
2021/06/30 01:33:40;;;;;;;78.00;36.17;;;;;;;16.04;100.00;100651.31;6299821;28;20491;-74
2021/06/30 01:36:45;;;;;;;81.50;38.17;;;;;;;16.00;100.00;100652.53;6299637;28;20055;-74
2021/06/30 01:39:48;;;;;;;79.63;38.38;;;;;;;15.97;100.00;100658.88;6299772;28;20051;-74
2021/06/30 01:42:51;;;;;;;72.68;35.28;;;;;;;15.96;100.00;100664.31;6299077;28;20056;-74
2021/06/30 01:45:53;;;;;;;78.88;35.55;;;;;;;15.97;100.00;100658.88;6299797;28;20048;-75
2021/06/30 01:48:54;;;;;;;74.03;35.50;;;;;;;15.95;100.00;100660.00;6299370;28;20049;-75
2021/06/30 01:51:56;;;;;;;101.10;40.75;;;;;;;15.92;100.00;100655.75;6299332;28;20048;-75
2021/06/30 01:54:59;;;;;;;70.30;33.97;;;;;;;15.91;100.00;100656.72;6299298;28;20519;-74
2021/06/30 01:58:00;;;;;;;78.07;34.88;;;;;;;15.87;100.00;100652.63;6299317;28;20059;-74
2021/06/30 02:01:02;;;;;;;71.60;34.05;;;;;;;15.84;100.00;100649.34;6298960;28;20055;-74
2021/06/30 02:04:03;;;;;;;73.28;37.53;;;;;;;15.83;100.00;100652.97;6298745;28;20052;-74
2021/06/30 02:07:06;;;;;;;67.60;35.67;;;;;;;15.82;100.00;100646.84;6298732;28;20055;-74
2021/06/30 02:10:10;;;;;;;82.70;37.50;;;;;;;15.84;100.00;100644.91;6298676;28;20056;-75
2021/06/30 02:13:12;;;;;;;72.72;36.25;;;;;;;15.85;100.00;100640.44;6298684;28;20045;-74
2021/06/30 02:16:13;;;;;;;80.20;37.80;;;;;;;15.82;100.00;100638.88;6298805;28;20052;-73
2021/06/30 02:19:15;;;;;;;74.07;36.35;;;;;;;15.81;100.00;100631.06;6298943;28;20049;-74
2021/06/30 02:22:17;;;;;;;71.88;36.55;;;;;;;15.87;100.00;100634.06;6298263;28;20044;-74
2021/06/30 02:25:23;;;;;;;66.93;34.80;;;;;;;15.87;100.00;100638.53;6298324;28;20182;-74
2021/06/30 02:28:24;;;;;;;78.10;35.63;;;;;;;15.82;100.00;100633.59;6298493;28;20057;-74
2021/06/30 02:31:26;;;;;;;67.53;34.28;;;;;;;15.85;100.00;100638.66;6298070;28;20048;-74
2021/06/30 02:34:28;;;;;;;80.22;37.15;;;;;;;15.90;100.00;100640.94;6298364;28;20048;-74
2021/06/30 02:37:29;;;;;;;82.32;38.38;;;;;;;15.96;100.00;100638.66;6298486;28;20048;-74
2021/06/30 02:40:32;;;;;;;73.97;37.88;;;;;;;15.95;100.00;100631.66;6298245;28;20056;-74
2021/06/30 02:43:33;;;;;;;78.57;39.08;;;;;;;15.96;100.00;100638.66;6297804;28;20048;-74
2021/06/30 02:46:35;;;;;;;82.75;39.88;;;;;;;16.01;100.00;100645.41;6298209;28;20432;-74
2021/06/30 02:49:36;;;;;;;88.95;38.30;;;;;;;16.06;100.00;100643.25;6297874;28;20051;-75
2021/06/30 02:52:39;;;;;;;82.63;38.28;;;;;;;16.08;100.00;100642.16;6297714;28;20052;-74
2021/06/30 02:55:41;;;;;;;86.60;36.15;;;;;;;16.10;100.00;100647.34;6298024;28;20060;-75
2021/06/30 02:58:43;;;;;;;63.65;31.80;;;;;;;16.05;100.00;100641.56;6297755;28;20048;-74
2021/06/30 03:01:44;;;;;;;78.32;36.67;;;;;;;15.94;100.00;100642.38;6297268;28;20041;-74
2021/06/30 03:04:45;;;;;;;94.80;37.13;;;;;;;15.91;100.00;100637.34;6297551;28;20415;-74
2021/06/30 03:07:50;;;;;;;89.78;37.08;;;;;;;15.93;100.00;100646.00;6297509;28;20052;-73
2021/06/30 03:10:53;;;;;;;81.03;35.90;;;;;;;15.98;100.00;100642.03;6297246;28;20045;-74
2021/06/30 03:13:54;;;;;;;82.45;37.40;;;;;;;15.97;100.00;100640.34;6297445;28;20048;-74
2021/06/30 03:16:56;;;;;;;82.65;38.10;;;;;;;15.99;100.00;100637.59;6297246;28;20519;-74
2021/06/30 03:19:57;;;;;;;81.97;37.05;;;;;;;16.03;100.00;100638.16;6297603;28;20518;-74
2021/06/30 03:22:59;;;;;;;90.53;39.65;;;;;;;16.06;100.00;100652.03;6297070;28;20056;-74
2021/06/30 03:26:02;;;;;;;93.03;40.47;;;;;;;16.06;100.00;100644.09;6297255;28;20052;-74
2021/06/30 03:29:04;;;;;;;89.70;39.80;;;;;;;16.05;100.00;100646.88;6296914;28;20052;-74
2021/06/30 03:32:06;;;;;;;80.45;39.38;;;;;;;15.98;100.00;100649.97;6296649;28;20041;-75
2021/06/30 03:35:09;;;;;;;91.60;38.45;;;;;;;16.00;100.00;100643.72;6296314;28;20056;-74
2021/06/30 03:38:11;;;;;;;84.05;38.45;;;;;;;16.01;100.00;100646.25;6296952;28;20499;-74
2021/06/30 03:41:14;;;;;;;86.03;38.42;;;;;;;16.06;100.00;100651.19;6296569;28;20048;-74
2021/06/30 03:44:15;;;;;;;84.05;39.10;;;;;;;16.04;100.00;100653.97;6296628;28;20462;-74
2021/06/30 03:47:16;;;;;;;87.30;40.13;;;;;;;16.03;100.00;100644.31;6296650;28;20419;-74
2021/06/30 03:50:18;;;;;;;87.95;38.92;;;;;;;16.09;100.00;100645.66;6296637;28;20051;-74
2021/06/30 03:53:19;;;;;;;90.90;40.53;;;;;;;16.11;100.00;100647.22;6296359;28;20392;-74
2021/06/30 03:56:25;;;;;;;100.35;42.25;;;;;;;16.13;100.00;100641.81;6296433;28;20052;-74
2021/06/30 03:59:26;;;;;;;106.55;44.95;;;;;;;16.12;100.00;100638.28;6296592;28;20178;-74
2021/06/30 04:02:28;;;;;;;108.93;43.53;;;;;;;16.18;100.00;100637.00;6295659;28;20045;-74
2021/06/30 04:05:29;;;;;;;106.53;42.92;;;;;;;16.21;100.00;100644.69;6296332;28;20407;-74
2021/06/30 04:08:31;;;;;;;120.65;45.88;;;;;;;16.23;100.00;100645.41;6296242;28;20055;-73
2021/06/30 04:11:33;;;;;;;139.60;49.35;;;;;;;16.27;100.00;100646.88;6296034;28;20048;-74
2021/06/30 04:14:35;;;;;;;146.95;49.22;;;;;;;16.29;100.00;100646.75;6296193;28;20052;-73
2021/06/30 04:17:36;;;;;;;154.35;50.13;;;;;;;16.38;100.00;100644.19;6296709;28;20491;-74
2021/06/30 04:20:40;;;;;;;155.98;51.22;;;;;;;16.42;100.00;100648.31;6296113;28;20518;-74
2021/06/30 04:23:42;;;;;;;150.68;51.05;;;;;;;16.48;100.00;100644.31;6296567;28;20136;-73
2021/06/30 04:26:44;;;;;;;156.00;52.00;;;;;;;16.42;100.00;100650.94;6296195;28;20522;-73
2021/06/30 04:29:46;;;;;;;164.98;49.90;;;;;;;16.45;100.00;100652.53;6295859;28;20052;-74
2021/06/30 04:32:47;;;;;;;173.35;53.25;;;;;;;16.45;100.00;100657.84;6295982;28;20053;-74
2021/06/30 04:35:49;;;;;;;172.60;51.10;;;;;;;16.44;100.00;100661.44;6295971;28;20059;-74
2021/06/30 04:38:50;;;;;;;170.63;51.60;;;;;;;16.43;100.00;100657.94;6296302;28;20055;-74
2021/06/30 04:41:53;;;;;;;166.50;52.33;;;;;;;16.49;100.00;100653.97;6295492;28;20051;-74
2021/06/30 04:44:54;;;;;;;166.32;50.75;;;;;;;16.48;100.00;100647.81;6296109;28;20045;-74
2021/06/30 04:47:56;;;;;;;169.30;55.70;;;;;;;16.58;100.00;100658.56;6299952;28;20052;-73
2021/06/30 04:50:57;;;;;;;178.20;50.90;;;;;;;16.51;100.00;100660.00;6300638;28;20048;-75
2021/06/30 04:53:58;;;;;;;184.82;56.92;;;;;;;16.48;100.00;100654.91;6300542;28;20044;-74
2021/06/30 04:57:01;;;;;;;196.60;56.72;;;;;;;16.48;100.00;100662.88;6300444;28;20071;-74
2021/06/30 05:00:04;;;;;;;175.40;55.03;;;;;;;16.62;100.00;100657.34;6300643;28;20487;-73
2021/06/30 05:03:06;;;;;;;129.63;47.92;;;;;;;16.69;100.00;100658.53;6300045;28;20052;-74
2021/06/30 05:06:07;;;;;;;126.88;45.92;;;;;;;16.73;100.00;100665.31;6300497;28;20045;-74
2021/06/30 05:09:09;;;;;;;124.50;45.65;;;;;;;16.70;100.00;100662.84;6300233;28;20048;-74
2021/06/30 05:12:12;;;;;;;130.88;46.30;;;;;;;16.57;100.00;100670.09;6299826;28;20598;-74
2021/06/30 05:15:13;;;;;;;126.53;47.10;;;;;;;16.70;100.00;100664.66;6300076;28;20526;-74
2021/06/30 05:18:15;;;;;;;123.35;48.40;;;;;;;16.59;100.00;100665.53;6300135;28;20131;-75
2021/06/30 05:21:16;;;;;;;123.53;45.28;;;;;;;16.58;100.00;100670.94;6299921;28;20052;-75
2021/06/30 05:24:17;;;;;;;114.20;43.63;;;;;;;16.64;100.00;100667.81;6300123;28;20052;-74
2021/06/30 05:27:20;;;;;;;114.88;44.67;;;;;;;16.64;100.00;100670.47;6299925;28;20056;-75
2021/06/30 05:30:22;;;;;;;109.82;41.47;;;;;;;16.59;100.00;100670.00;6299740;28;20049;-74
2021/06/30 05:33:23;;;;;;;117.05;42.50;;;;;;;16.56;100.00;100664.94;6299451;28;20416;-74
2021/06/30 05:36:24;;;;;;;118.30;41.83;;;;;;;16.53;100.00;100668.66;6299174;28;20651;-75
2021/06/30 05:39:26;;;;;;;127.35;44.30;;;;;;;16.54;100.00;100667.72;6296447;28;20045;-75
2021/06/30 05:42:29;;;;;;;122.10;42.95;;;;;;;16.63;100.00;100671.44;6298134;28;20461;-74
2021/06/30 05:45:30;;;;;;;115.28;41.70;;;;;;;16.56;100.00;100671.06;6295523;28;20041;-75
2021/06/30 05:48:32;;;;;;;125.13;43.20;;;;;;;16.57;100.00;100671.91;6297835;28;20044;-75
2021/06/30 05:51:35;;;;;;;100.55;40.53;;;;;;;16.67;100.00;100659.63;6297639;28;20048;-75
2021/06/30 05:54:36;;;;;;;101.82;39.22;;;;;;;16.69;100.00;100669.13;6297786;28;20487;-75
2021/06/30 05:57:39;;;;;;;101.18;38.92;;;;;;;16.67;100.00;100664.94;6296894;28;20052;-74
2021/06/30 06:00:42;;;;;;;101.90;37.50;;;;;;;16.67;100.00;100664.94;6297534;28;20044;-75
2021/06/30 06:03:43;;;;;;;89.45;36.10;;;;;;;16.66;100.00;100664.06;6297388;28;20415;-76
2021/06/30 06:06:45;;;;;;;91.28;36.35;;;;;;;16.70;100.00;100665.50;6298512;28;20055;-76
2021/06/30 06:09:46;;;;;;;83.10;36.13;;;;;;;16.76;100.00;100661.56;6298853;28;20048;-76
2021/06/30 06:12:49;;;;;;;76.80;33.05;;;;;;;16.61;100.00;100663.59;6298325;28;20056;-76
2021/06/30 06:15:50;;;;;;;65.70;28.30;;;;;;;16.72;100.00;100663.63;6298762;28;20452;-74
2021/06/30 06:18:51;;;;;;;57.70;27.42;;;;;;;16.59;100.00;100665.53;6291839;28;20526;-76
2021/06/30 06:21:53;;;;;;;59.00;27.40;;;;;;;16.50;100.00;100668.91;6298089;28;20041;-74
2021/06/30 06:24:55;;;;;;;54.13;25.60;;;;;;;16.48;100.00;100676.13;6298544;28;20056;-76
2021/06/30 06:27:57;;;;;;;57.88;25.25;;;;;;;16.45;100.00;100673.75;6292938;28;20503;-76
2021/06/30 06:30:59;;;;;;;65.53;27.02;;;;;;;16.42;100.00;100680.13;6296336;28;20073;-76
2021/06/30 06:34:01;;;;;;;54.55;23.02;;;;;;;16.55;100.00;100684.47;6296028;28;20040;-76
2021/06/30 06:37:04;;;;;;;48.58;23.38;;;;;;;16.49;100.00;100691.13;6296787;28;20051;-77
2021/06/30 06:40:07;;;;;;;52.95;21.50;;;;;;;16.44;100.00;100682.66;6298055;28;20044;-76
2021/06/30 06:43:10;;;;;;;42.95;20.00;;;;;;;16.51;100.00;100688.34;6297865;28;20049;-77
2021/06/30 06:46:11;;;;;;;51.42;21.45;;;;;;;16.52;100.00;100684.72;6298051;28;20455;-77
2021/06/30 06:49:13;;;;;;;48.58;19.05;;;;;;;16.46;100.00;100680.75;6297784;28;20384;-76
2021/06/30 06:52:14;;;;;;;39.03;19.67;;;;;;;16.42;100.00;100679.28;6297621;28;20052;-78
2021/06/30 06:55:16;;;;;;;39.08;19.73;;;;;;;16.55;100.00;100674.69;6298013;28;20412;-75
2021/06/30 06:58:19;;;;;;;47.42;20.65;;;;;;;16.47;100.00;100685.91;6297646;28;20435;-75
2021/06/30 07:01:20;;;;;;;46.22;21.38;;;;;;;16.52;100.00;100680.25;6296721;28;20046;-75
2021/06/30 07:04:21;;;;;;;52.55;21.85;;;;;;;16.54;100.00;100683.63;6297617;28;20060;-75
2021/06/30 07:07:23;;;;;;;43.47;21.63;;;;;;;16.55;100.00;100692.44;6297644;28;20044;-77
2021/06/30 07:10:24;;;;;;;39.38;19.00;;;;;;;16.53;100.00;100689.88;6290939;28;20049;-77
2021/06/30 07:13:27;;;;;;;35.50;19.27;;;;;;;16.59;100.00;100694.72;6296938;28;20538;-75
2021/06/30 07:16:28;;;;;;;34.35;17.20;;;;;;;16.52;100.00;100692.66;6296933;28;20044;-75
2021/06/30 07:19:30;;;;;;;37.78;17.40;;;;;;;16.44;100.00;100691.47;6295062;28;20044;-75
2021/06/30 07:22:31;;;;;;;45.67;16.85;;;;;;;16.45;100.00;100689.66;6283217;28;20064;-76
2021/06/30 07:25:33;;;;;;;28.58;16.00;;;;;;;16.42;100.00;100689.91;6289158;28;20048;-78
2021/06/30 07:28:35;;;;;;;25.13;14.95;;;;;;;16.65;100.00;100694.22;6291163;28;20048;-76
2021/06/30 07:31:37;;;;;;;29.67;14.63;;;;;;;16.49;100.00;100689.31;6285109;28;20051;-77
2021/06/30 07:34:39;;;;;;;26.20;14.30;;;;;;;16.54;100.00;100698.72;6297843;28;20415;-80
2021/06/30 07:37:40;;;;;;;28.17;13.88;;;;;;;16.69;100.00;100700.13;6297166;28;20048;-75
2021/06/30 07:40:42;;;;;;;22.30;13.40;;;;;;;16.43;100.00;100697.72;6298340;28;20048;-77
2021/06/30 07:43:44;;;;;;;20.70;12.88;;;;;;;16.46;100.00;100699.31;6298416;28;20516;-76
2021/06/30 07:46:46;;;;;;;20.35;12.52;;;;;;;16.42;100.00;100708.47;6288971;28;20048;-76
2021/06/30 07:49:47;;;;;;;26.98;14.63;;;;;;;16.37;100.00;100711.47;6297206;28;20048;-77
2021/06/30 07:52:49;;;;;;;26.73;13.70;;;;;;;16.45;100.00;100710.88;6296360;28;20036;-76
2021/06/30 07:55:51;;;;;;;23.10;14.23;;;;;;;16.38;100.00;100709.66;6276678;28;20079;-78
2021/06/30 07:58:54;;;;;;;26.42;14.20;;;;;;;16.34;100.00;100714.34;6272017;28;20072;-76
2021/06/30 08:01:55;;;;;;;21.35;13.00;;;;;;;16.30;100.00;100715.56;6280024;28;20052;-77
2021/06/30 08:04:56;;;;;;;20.05;13.48;;;;;;;16.32;100.00;100721.59;6296741;28;20045;-77
2021/06/30 08:07:58;;;;;;;19.25;12.23;;;;;;;16.34;100.00;100714.34;6296163;28;20052;-76
2021/06/30 08:10:59;;;;;;;23.88;12.40;;;;;;;16.28;100.00;100721.97;6295903;28;20044;-77
2021/06/30 08:14:02;;;;;;;21.30;12.30;;;;;;;16.34;100.00;100721.47;6296515;28;20048;-76
2021/06/30 08:17:04;;;;;;;18.98;11.73;;;;;;;16.27;100.00;100723.78;6297257;28;20053;-78
2021/06/30 08:20:06;;;;;;;21.20;11.80;;;;;;;16.30;100.00;100720.03;6299147;28;20049;-78
2021/06/30 08:23:08;;;;;;;19.85;12.15;;;;;;;16.30;100.00;100725.31;6295303;28;20060;-75
2021/06/30 08:26:10;;;;;;;18.80;10.73;;;;;;;16.34;100.00;100724.13;6295887;28;20060;-76
2021/06/30 08:29:13;;;;;;;15.85;11.10;;;;;;;16.42;100.00;100727.88;6295748;28;20045;-76
2021/06/30 08:32:15;;;;;;;19.85;10.45;;;;;;;16.29;100.00;100724.50;6295821;28;20052;-75
2021/06/30 08:35:17;;;;;;;17.58;11.10;;;;;;;16.31;100.00;100722.56;6295984;28;20052;-76
2021/06/30 08:38:18;;;;;;;15.45;9.70;;;;;;;16.40;100.00;100721.84;6296165;28;20106;-76
2021/06/30 08:41:22;;;;;;;17.02;10.23;;;;;;;16.47;100.00;100727.50;6295786;28;20055;-76
2021/06/30 08:44:25;;;;;;;18.55;10.68;;;;;;;16.40;100.00;100728.97;6295813;28;20049;-77
2021/06/30 08:47:32;;;;;;;17.63;9.93;;;;;;;16.47;100.00;100727.50;6295969;28;20148;-77
2021/06/30 08:50:35;;;;;;;14.30;9.50;;;;;;;16.45;100.00;100721.50;6292811;28;20542;-74
2021/06/30 08:53:41;;;;;;;17.42;9.98;;;;;;;16.36;100.00;100724.88;6290442;28;20032;-75
2021/06/30 08:56:44;;;;;;;17.33;9.65;;;;;;;16.42;100.00;100733.19;6282148;28;20098;-77
2021/06/30 08:59:48;;;;;;;19.65;10.35;;;;;;;16.39;100.00;100736.06;6273147;28;20515;-77
2021/06/30 09:02:56;;;;;;;15.43;9.40;;;;;;;16.38;100.00;100728.22;6291492;28;20051;-78
2021/06/30 09:06:12;;;;;;;18.25;9.90;;;;;;;16.31;100.00;100735.84;6295263;28;20178;-77
2021/06/30 09:09:15;;;;;;;22.52;9.52;;;;;;;16.29;100.00;100731.59;6295236;28;20044;-77
2021/06/30 09:12:17;;;;;;;14.15;9.75;;;;;;;16.24;100.00;100737.25;6294776;28;20488;-77
2021/06/30 09:15:26;;;;;;;21.95;10.35;;;;;;;16.30;100.00;100730.63;6295633;28;20503;-77
2021/06/30 09:18:31;;;;;;;19.35;10.32;;;;;;;16.34;100.00;100740.88;6295992;28;20049;-76
2021/06/30 09:21:32;;;;;;;15.55;9.45;;;;;;;16.28;100.00;100743.19;6295358;28;20055;-77
2021/06/30 09:24:39;;;;;;;15.30;9.32;;;;;;;16.30;100.00;100747.38;6295991;28;20052;-78
2021/06/30 09:27:43;;;;;;;13.80;9.18;;;;;;;16.31;100.00;100749.09;6290928;28;20495;-78
2021/06/30 09:31:03;;;;;;;13.02;9.07;;;;;;;16.41;100.00;100746.56;6279466;28;20052;-77
2021/06/30 09:34:05;;;;;;;14.73;9.15;;;;;;;16.40;100.00;100744.88;6296504;28;20045;-77
2021/06/30 09:37:08;;;;;;;13.27;9.23;;;;;;;16.47;100.00;100736.31;6282518;28;20040;-76
2021/06/30 09:40:11;;;;;;;13.13;9.27;;;;;;;16.45;100.00;100743.56;6297853;28;20257;-75
2021/06/30 09:43:24;;;;;;;17.23;9.45;;;;;;;16.55;100.00;100735.72;6298978;28;20044;-76
2021/06/30 09:46:26;;;;;;;14.27;9.43;;;;;;;16.64;100.00;100737.66;6299238;28;20045;-76
2021/06/30 09:49:28;;;;;;;12.57;9.52;;;;;;;16.75;100.00;100742.13;6299859;28;20053;-75
2021/06/30 09:52:38;;;;;;;17.60;8.98;;;;;;;16.66;100.00;100746.31;6298883;28;20040;-76
2021/06/30 09:55:39;;;;;;;12.20;8.73;;;;;;;16.66;100.00;100735.72;6299407;28;20044;-76
2021/06/30 09:58:41;;;;;;;16.98;9.70;;;;;;;16.73;100.00;100744.06;6299180;28;20052;-76
2021/06/30 10:01:45;;;;;;;14.10;8.95;;;;;;;16.84;100.00;100744.06;6298659;28;20415;-75
2021/06/30 10:04:48;;;;;;;16.50;8.85;;;;;;;16.84;100.00;100743.22;6299404;28;20053;-77
2021/06/30 10:07:50;;;;;;;12.35;8.38;;;;;;;16.98;100.00;100749.09;6299071;28;20139;-76
2021/06/30 10:10:52;;;;;;;13.05;8.85;;;;;;;17.20;100.00;100747.38;6298976;28;20049;-77
2021/06/30 10:13:54;;;;;;;12.80;8.38;;;;;;;17.19;100.00;100745.69;6298875;28;20055;-75
2021/06/30 10:16:58;;;;;;;12.15;8.55;;;;;;;17.06;100.00;100739.69;6298743;28;20052;-78
2021/06/30 10:20:01;;;;;;;11.00;7.93;;;;;;;17.05;100.00;100741.50;6298940;28;20519;-75
2021/06/30 10:23:03;;;;;;;10.90;7.70;;;;;;;17.12;100.00;100742.72;6298358;28;20044;-76
2021/06/30 10:26:04;;;;;;;10.68;8.07;;;;;;;17.24;100.00;100748.81;6298840;28;20048;-77
2021/06/30 10:29:06;;;;;;;13.13;7.80;;;;;;;17.28;100.00;100747.59;6298604;28;20053;-78
2021/06/30 10:32:12;;;;;;;10.48;7.95;;;;;;;17.51;100.00;100751.03;6298079;28;20511;-74
2021/06/30 10:35:17;;;;;;;9.57;7.20;;;;;;;17.42;100.00;100749.97;6298439;28;20053;-73
2021/06/30 10:38:19;;;;;;;12.35;8.38;;;;;;;17.28;100.00;100749.41;6295918;28;20505;-77
2021/06/30 10:41:37;;;;;;;12.50;8.35;;;;;;;17.16;100.00;100751.25;6295830;28;20055;-76
2021/06/30 10:44:46;;;;;;;14.05;7.75;;;;;;;17.31;100.00;100741.22;6297789;28;20048;-74
2021/06/30 10:47:51;;;;;;;11.03;7.57;;;;;;;17.27;100.00;100751.25;6297821;28;20127;-78
2021/06/30 10:50:57;;;;;;;15.45;8.77;;;;;;;17.31;100.00;100749.19;6291581;28;20051;-77
2021/06/30 10:53:58;;;;;;;12.57;8.77;;;;;;;17.34;100.00;100749.75;6296375;28;20040;-78
2021/06/30 10:57:23;;;;;;;10.98;8.57;;;;;;;17.42;100.00;100742.00;6297583;28;20046;-79
2021/06/30 11:00:33;;;;;;;11.98;8.48;;;;;;;17.38;100.00;100751.19;6291730;28;20423;-78
2021/06/30 11:03:38;;;;;;;13.73;8.23;;;;;;;17.29;100.00;100746.63;6297199;28;20067;-77
2021/06/30 11:06:39;;;;;;;11.93;8.18;;;;;;;17.34;100.00;100754.22;6297426;28;20491;-78
2021/06/30 11:09:40;;;;;;;13.77;9.13;;;;;;;17.34;100.00;100754.22;6297361;28;20491;-77
2021/06/30 11:13:01;;;;;;;11.15;8.20;;;;;;;17.26;100.00;100741.59;6297103;28;20495;-77
2021/06/30 11:16:02;;;;;;;15.90;8.45;;;;;;;17.27;100.00;100753.91;6297298;28;20048;-76
2021/06/30 11:19:05;;;;;;;12.57;8.85;;;;;;;17.19;100.00;100759.81;6296822;28;20048;-78
2021/06/30 11:22:08;;;;;;;10.75;8.05;;;;;;;17.16;100.00;100756.56;6296070;28;20051;-78
2021/06/30 11:25:24;;;;;;;12.57;9.15;;;;;;;17.09;100.00;100760.69;6294206;28;20047;-77
2021/06/30 11:28:30;;;;;;;14.50;8.93;;;;;;;17.23;100.00;100758.59;6295343;28;20097;-76
2021/06/30 11:31:41;;;;;;;10.95;8.05;;;;;;;17.12;100.00;100752.47;6296601;28;20084;-77
2021/06/30 11:34:44;;;;;;;11.15;7.50;;;;;;;17.23;100.00;100755.09;6297255;28;20052;-74
2021/06/30 11:37:47;;;;;;;13.07;7.78;;;;;;;17.15;100.00;100754.88;6296844;28;20055;-76
2021/06/30 11:40:57;;;;;;;15.35;7.88;;;;;;;17.15;100.00;100749.56;6296577;28;20048;-77
2021/06/30 11:43:58;;;;;;;11.38;8.13;;;;;;;17.36;100.00;100758.47;6296589;28;20127;-76
2021/06/30 11:47:02;;;;;;;9.73;7.28;;;;;;;17.44;100.00;100753.38;6296482;28;20515;-76
2021/06/30 11:50:06;;;;;;;12.32;8.40;;;;;;;17.39;100.00;100746.72;6296808;28;20048;-78
2021/06/30 11:53:08;;;;;;;12.82;8.63;;;;;;;17.39;100.00;100758.19;6296387;28;20079;-77
2021/06/30 11:56:11;;;;;;;13.90;9.20;;;;;;;17.58;100.00;100759.34;6296114;28;20044;-77
2021/06/30 11:59:18;;;;;;;12.32;8.73;;;;;;;17.55;100.00;100749.81;6293701;28;20389;-77
2021/06/30 12:02:19;;;;;;;13.30;8.88;;;;;;;17.53;100.00;100743.75;6295607;28;20548;-78
2021/06/30 12:05:24;;;;;;;13.10;8.75;;;;;;;17.61;100.00;100751.13;6286182;28;20507;-77
2021/06/30 12:08:27;;;;;;;15.73;7.85;;;;;;;17.60;100.00;100750.28;6295926;28;20052;-76
2021/06/30 12:11:31;;;;;;;13.02;8.55;;;;;;;17.58;100.00;100746.06;6295657;28;20499;-77
2021/06/30 12:14:37;;;;;;;11.43;9.02;;;;;;;17.53;100.00;100743.75;6271566;28;20060;-77
2021/06/30 12:17:45;;;;;;;9.77;7.43;;;;;;;17.67;100.00;100742.66;6271206;28;20057;-76
2021/06/30 12:20:48;;;;;;;10.90;7.60;;;;;;;17.65;100.00;100742.75;6277686;28;20129;-77
2021/06/30 12:23:49;;;;;;;8.32;7.15;;;;;;;17.68;100.00;100739.84;6295203;28;20052;-76
2021/06/30 12:27:05;;;;;;;11.05;7.85;;;;;;;17.78;100.00;100737.31;6296294;28;20508;-77
2021/06/30 12:30:09;;;;;;;9.07;7.18;;;;;;;17.84;100.00;100738.59;6295988;28;20084;-77
2021/06/30 12:33:12;;;;;;;10.15;6.70;;;;;;;17.88;100.00;100742.69;6286752;28;20138;-76
2021/06/30 12:36:20;;;;;;;8.70;6.07;;;;;;;17.95;100.00;100738.56;6271200;28;20055;-75
2021/06/30 12:39:23;;;;;;;10.05;7.10;;;;;;;17.88;100.00;100740.03;6271273;28;20052;-75
2021/06/30 12:42:48;;;;;;;9.23;6.50;;;;;;;17.85;100.00;100738.47;6272778;28;20049;-76
2021/06/30 12:45:51;;;;;;;7.65;5.78;;;;;;;17.93;100.00;100751.94;6270577;28;20052;-73
2021/06/30 12:48:53;;;;;;;8.63;6.00;;;;;;;17.98;100.00;100747.09;6270425;28;20079;-74
2021/06/30 12:51:55;;;;;;;6.72;5.95;;;;;;;18.15;100.00;100747.50;6270254;28;20401;-74
2021/06/30 12:55:02;;;;;;;6.28;5.15;;;;;;;18.04;100.00;100751.06;6271071;28;20535;-75
2021/06/30 12:58:04;;;;;;;8.00;6.25;;;;;;;18.06;100.00;100754.44;6270999;28;20056;-75
2021/06/30 13:01:08;;;;;;;6.60;5.93;;;;;;;18.23;100.00;100745.88;6294850;28;20048;-76
2021/06/30 13:04:10;;;;;;;9.10;6.00;;;;;;;18.34;100.00;100752.91;6294603;28;20419;-76
2021/06/30 13:07:13;;;;;;;7.72;5.82;;;;;;;18.61;100.00;100749.69;6296752;28;20052;-75
2021/06/30 13:10:16;;;;;;;8.27;6.55;;;;;;;18.42;100.00;100755.75;6299989;28;20055;-76
2021/06/30 13:13:18;;;;;;;6.32;5.35;;;;;;;18.50;100.00;100755.09;6276241;28;20057;-74
2021/06/30 13:16:19;;;;;;;12.73;6.05;;;;;;;18.42;100.00;100757.59;6291642;28;20515;-75
2021/06/30 13:19:22;;;;;;;6.13;5.20;;;;;;;18.31;100.00;100752.34;6291146;28;20045;-75
2021/06/30 13:22:28;;;;;;;6.13;5.40;;;;;;;18.36;100.00;100748.31;6296627;28;20063;-75
2021/06/30 13:25:41;;;;;;;7.93;5.00;;;;;;;18.27;100.00;100756.25;6298365;28;20510;-75
2021/06/30 13:29:07;;;;;;;6.32;5.07;;;;;;;18.57;98.93;100750.09;6299614;28;20047;-74
2021/06/30 13:35:41;;;;;;;11.00;6.50;;;;;;;18.27;100.00;100745.59;6299969;28;20076;-76
2021/06/30 13:38:47;;;;;;;8.50;6.15;;;;;;;18.35;100.00;100743.97;6288490;28;20051;-75
2021/06/30 13:41:48;;;;;;;7.00;5.80;;;;;;;18.33;100.00;100740.59;6292896;28;20049;-73
2021/06/30 13:44:58;;;;;;;8.50;6.25;;;;;;;18.25;100.00;100735.91;6284785;28;20040;-75
2021/06/30 13:47:59;;;;;;;13.10;6.50;;;;;;;18.29;100.00;100744.47;6298314;28;20044;-75
2021/06/30 13:51:03;;;;;;;11.00;6.97;;;;;;;18.19;100.00;100740.94;6299292;28;20087;-75